sensor_id;sensor_type;location;lat;lon;timestamp;pressure;altitude;pressure_sealevel;temperature;humidity
19860;BME280;2395;50.738;7.122;2022-09-09T00:00:13;100382.50;;;18.22;76.55
19860;BME280;2395;50.738;7.122;2022-09-09T00:02:52;100378.50;;;18.29;77.14
19860;BME280;2395;50.738;7.122;2022-09-09T00:05:31;100382.66;;;18.31;77.14
19860;BME280;2395;50.738;7.122;2022-09-09T00:08:02;100372.66;;;18.38;76.25
19860;BME280;2395;50.738;7.122;2022-09-09T00:10:37;100372.59;;;18.27;76.72
19860;BME280;2395;50.738;7.122;2022-09-09T00:13:16;100371.97;;;18.23;77.04
19860;BME280;2395;50.738;7.122;2022-09-09T00:15:56;100365.84;;;18.24;77.59
19860;BME280;2395;50.738;7.122;2022-09-09T00:18:29;100370.88;;;18.15;77.09
19860;BME280;2395;50.738;7.122;2022-09-09T00:21:06;100379.06;;;18.09;78.07
19860;BME280;2395;50.738;7.122;2022-09-09T00:23:37;100374.59;;;18.11;77.77
19860;BME280;2395;50.738;7.122;2022-09-09T00:26:16;100369.94;;;18.03;78.41
19860;BME280;2395;50.738;7.122;2022-09-09T00:28:55;100374.13;;;18.06;78.42
19860;BME280;2395;50.738;7.122;2022-09-09T00:31:28;100370.06;;;18.02;78.38
19860;BME280;2395;50.738;7.122;2022-09-09T00:34:04;100368.84;;;17.95;78.59
19860;BME280;2395;50.738;7.122;2022-09-09T00:36:37;100371.94;;;18.00;78.44
19860;BME280;2395;50.738;7.122;2022-09-09T00:39:05;100368.63;;;17.98;78.30
19860;BME280;2395;50.738;7.122;2022-09-09T00:41:55;100374.25;;;17.92;78.08
19860;BME280;2395;50.738;7.122;2022-09-09T00:44:32;100365.66;;;17.79;79.35
19860;BME280;2395;50.738;7.122;2022-09-09T00:47:20;100368.88;;;17.83;78.79
19860;BME280;2395;50.738;7.122;2022-09-09T00:50:00;100369.38;;;17.88;78.73
19860;BME280;2395;50.738;7.122;2022-09-09T00:52:44;100374.72;;;17.74;79.53
19860;BME280;2395;50.738;7.122;2022-09-09T00:55:19;100376.53;;;17.61;80.11
19860;BME280;2395;50.738;7.122;2022-09-09T00:57:52;100374.53;;;17.64;80.03
19860;BME280;2395;50.738;7.122;2022-09-09T01:00:25;100385.63;;;17.79;80.09
19860;BME280;2395;50.738;7.122;2022-09-09T01:03:10;100381.03;;;17.82;79.43
19860;BME280;2395;50.738;7.122;2022-09-09T01:05:48;100377.53;;;17.58;80.82
19860;BME280;2395;50.738;7.122;2022-09-09T01:08:50;100377.84;;;17.54;80.56
19860;BME280;2395;50.738;7.122;2022-09-09T01:11:24;100381.00;;;17.46;81.21
19860;BME280;2395;50.738;7.122;2022-09-09T01:14:05;100367.88;;;17.60;80.90
19860;BME280;2395;50.738;7.122;2022-09-09T01:16:37;100380.94;;;17.71;80.28
19860;BME280;2395;50.738;7.122;2022-09-09T01:19:08;100373.69;;;17.76;79.91
19860;BME280;2395;50.738;7.122;2022-09-09T01:21:56;100372.44;;;17.69;80.60
19860;BME280;2395;50.738;7.122;2022-09-09T01:24:38;100374.75;;;17.61;80.80
19860;BME280;2395;50.738;7.122;2022-09-09T01:27:09;100374.84;;;17.60;80.08
19860;BME280;2395;50.738;7.122;2022-09-09T01:29:40;100374.94;;;17.71;81.16
19860;BME280;2395;50.738;7.122;2022-09-09T01:32:43;100374.34;;;17.55;81.10
19860;BME280;2395;50.738;7.122;2022-09-09T01:35:15;100382.22;;;17.53;81.21
19860;BME280;2395;50.738;7.122;2022-09-09T01:37:46;100378.34;;;17.71;80.61
19860;BME280;2395;50.738;7.122;2022-09-09T01:40:13;100376.81;;;17.69;80.70
19860;BME280;2395;50.738;7.122;2022-09-09T01:42:42;100374.34;;;17.55;80.93
19860;BME280;2395;50.738;7.122;2022-09-09T01:45:10;100376.94;;;17.55;80.48
19860;BME280;2395;50.738;7.122;2022-09-09T01:47:37;100370.06;;;17.54;80.60
19860;BME280;2395;50.738;7.122;2022-09-09T01:50:07;100369.97;;;17.68;79.83
19860;BME280;2395;50.738;7.122;2022-09-09T01:52:37;100375.97;;;17.68;80.13
19860;BME280;2395;50.738;7.122;2022-09-09T01:55:07;100373.00;;;17.62;79.79
19860;BME280;2395;50.738;7.122;2022-09-09T01:57:46;100370.78;;;17.68;79.71
19860;BME280;2395;50.738;7.122;2022-09-09T02:00:16;100376.28;;;17.64;79.51
19860;BME280;2395;50.738;7.122;2022-09-09T02:02:57;100375.75;;;17.71;79.05
19860;BME280;2395;50.738;7.122;2022-09-09T02:05:36;100380.50;;;17.77;79.51
19860;BME280;2395;50.738;7.122;2022-09-09T02:08:07;100380.31;;;17.80;78.99
19860;BME280;2395;50.738;7.122;2022-09-09T02:10:44;100375.75;;;17.71;78.76
19860;BME280;2395;50.738;7.122;2022-09-09T02:13:19;100374.94;;;17.71;78.80
19860;BME280;2395;50.738;7.122;2022-09-09T02:15:52;100377.00;;;17.66;79.54
19860;BME280;2395;50.738;7.122;2022-09-09T02:18:28;100371.22;;;17.62;78.71
19860;BME280;2395;50.738;7.122;2022-09-09T02:20:57;100367.25;;;17.69;79.01
19860;BME280;2395;50.738;7.122;2022-09-09T02:23:27;100368.25;;;17.79;78.81
19860;BME280;2395;50.738;7.122;2022-09-09T02:25:58;100367.31;;;17.80;78.52
19860;BME280;2395;50.738;7.122;2022-09-09T02:28:33;100366.47;;;17.92;78.54
19860;BME280;2395;50.738;7.122;2022-09-09T02:31:01;100374.66;;;17.99;78.45
19860;BME280;2395;50.738;7.122;2022-09-09T02:33:35;100374.38;;;17.91;77.78
19860;BME280;2395;50.738;7.122;2022-09-09T02:36:07;100379.25;;;17.95;77.37
19860;BME280;2395;50.738;7.122;2022-09-09T02:38:44;100374.97;;;17.94;77.89
19860;BME280;2395;50.738;7.122;2022-09-09T02:41:16;100363.78;;;17.81;77.27
19860;BME280;2395;50.738;7.122;2022-09-09T02:43:45;100356.41;;;17.88;77.89
19860;BME280;2395;50.738;7.122;2022-09-09T02:46:32;100356.41;;;17.88;77.97
19860;BME280;2395;50.738;7.122;2022-09-09T02:49:09;100360.53;;;17.90;77.43
19860;BME280;2395;50.738;7.122;2022-09-09T02:51:48;100355.34;;;17.90;77.61
19860;BME280;2395;50.738;7.122;2022-09-09T02:54:27;100351.34;;;17.86;77.30
19860;BME280;2395;50.738;7.122;2022-09-09T02:57:06;100348.50;;;17.89;78.14
19860;BME280;2395;50.738;7.122;2022-09-09T02:59:36;100353.22;;;17.84;77.71
19860;BME280;2395;50.738;7.122;2022-09-09T03:02:04;100350.03;;;17.92;78.39
19860;BME280;2395;50.738;7.122;2022-09-09T03:04:32;100355.34;;;17.90;77.38
19860;BME280;2395;50.738;7.122;2022-09-09T03:06:59;100359.13;;;17.86;78.23
19860;BME280;2395;50.738;7.122;2022-09-09T03:09:26;100354.63;;;17.88;77.99
19860;BME280;2395;50.738;7.122;2022-09-09T03:11:54;100350.56;;;17.97;77.97
19860;BME280;2395;50.738;7.122;2022-09-09T03:14:22;100356.97;;;18.03;78.16
19860;BME280;2395;50.738;7.122;2022-09-09T03:16:55;100357.56;;;17.84;78.06
19860;BME280;2395;50.738;7.122;2022-09-09T03:19:23;100347.50;;;17.79;78.65
19860;BME280;2395;50.738;7.122;2022-09-09T03:21:51;100357.13;;;17.90;77.91
19860;BME280;2395;50.738;7.122;2022-09-09T03:24:18;100352.59;;;17.81;78.30
19860;BME280;2395;50.738;7.122;2022-09-09T03:26:46;100359.63;;;17.91;78.67
19860;BME280;2395;50.738;7.122;2022-09-09T03:29:13;100355.41;;;17.78;78.50
19860;BME280;2395;50.738;7.122;2022-09-09T03:31:41;100359.94;;;17.87;77.43
19860;BME280;2395;50.738;7.122;2022-09-09T03:34:10;100363.78;;;17.81;79.22
19860;BME280;2395;50.738;7.122;2022-09-09T03:36:37;100364.31;;;17.86;78.67
19860;BME280;2395;50.738;7.122;2022-09-09T03:39:07;100363.66;;;17.95;78.64
19860;BME280;2395;50.738;7.122;2022-09-09T03:41:34;100361.81;;;17.85;78.84
19860;BME280;2395;50.738;7.122;2022-09-09T03:44:04;100358.41;;;17.84;79.42
19860;BME280;2395;50.738;7.122;2022-09-09T03:46:31;100351.59;;;17.71;79.21
19860;BME280;2395;50.738;7.122;2022-09-09T03:48:58;100360.19;;;17.71;79.75
19860;BME280;2395;50.738;7.122;2022-09-09T03:51:27;100364.56;;;17.71;78.82
19860;BME280;2395;50.738;7.122;2022-09-09T03:53:54;100357.31;;;17.63;79.29
19860;BME280;2395;50.738;7.122;2022-09-09T03:56:22;100356.88;;;17.69;79.52
19860;BME280;2395;50.738;7.122;2022-09-09T03:58:51;100354.88;;;17.85;80.06
19860;BME280;2395;50.738;7.122;2022-09-09T04:01:19;100358.81;;;17.78;79.29
19860;BME280;2395;50.738;7.122;2022-09-09T04:03:46;100359.34;;;17.83;79.12
19860;BME280;2395;50.738;7.122;2022-09-09T04:06:14;100352.16;;;17.87;79.09
19860;BME280;2395;50.738;7.122;2022-09-09T04:08:42;100355.34;;;17.90;79.20
19860;BME280;2395;50.738;7.122;2022-09-09T04:11:10;100352.69;;;17.79;79.62
19860;BME280;2395;50.738;7.122;2022-09-09T04:13:38;100354.25;;;17.82;79.00
19860;BME280;2395;50.738;7.122;2022-09-09T04:16:07;100359.63;;;17.91;78.77
19860;BME280;2395;50.738;7.122;2022-09-09T04:18:36;100357.53;;;17.96;79.44
19860;BME280;2395;50.738;7.122;2022-09-09T04:21:04;100363.22;;;18.01;79.01
19860;BME280;2395;50.738;7.122;2022-09-09T04:23:33;100368.81;;;18.07;78.82
19860;BME280;2395;50.738;7.122;2022-09-09T04:26:03;100372.81;;;18.24;78.03
19860;BME280;2395;50.738;7.122;2022-09-09T04:28:34;100369.19;;;18.14;77.74
19860;BME280;2395;50.738;7.122;2022-09-09T04:31:06;100370.94;;;18.13;77.86
19860;BME280;2395;50.738;7.122;2022-09-09T04:33:33;100371.69;;;18.15;77.04
19860;BME280;2395;50.738;7.122;2022-09-09T04:36:01;100369.63;;;18.08;77.84
19860;BME280;2395;50.738;7.122;2022-09-09T04:38:28;100376.28;;;18.12;78.54
19860;BME280;2395;50.738;7.122;2022-09-09T04:40:56;100366.59;;;18.14;77.64
19860;BME280;2395;50.738;7.122;2022-09-09T04:43:25;100376.06;;;18.02;77.75
19860;BME280;2395;50.738;7.122;2022-09-09T04:45:56;100374.41;;;18.01;78.73
19860;BME280;2395;50.738;7.122;2022-09-09T04:48:24;100379.97;;;17.85;78.26
19860;BME280;2395;50.738;7.122;2022-09-09T04:50:58;100378.59;;;18.04;78.35
19860;BME280;2395;50.738;7.122;2022-09-09T04:53:26;100381.66;;;18.09;77.92
19860;BME280;2395;50.738;7.122;2022-09-09T04:56:01;100385.13;;;17.97;78.02
19860;BME280;2395;50.738;7.122;2022-09-09T04:58:30;100384.19;;;17.98;77.78
19860;BME280;2395;50.738;7.122;2022-09-09T05:01:05;100389.44;;;17.86;78.13
19860;BME280;2395;50.738;7.122;2022-09-09T05:03:32;100390.03;;;17.89;78.45
19860;BME280;2395;50.738;7.122;2022-09-09T05:06:05;100384.06;;;18.12;76.81
19860;BME280;2395;50.738;7.122;2022-09-09T05:08:34;100380.47;;;18.02;77.77
19860;BME280;2395;50.738;7.122;2022-09-09T05:11:01;100388.25;;;18.02;77.76
19860;BME280;2395;50.738;7.122;2022-09-09T05:13:30;100389.03;;;17.79;77.11
19860;BME280;2395;50.738;7.122;2022-09-09T05:15:58;100388.38;;;18.01;77.24
19860;BME280;2395;50.738;7.122;2022-09-09T05:18:25;100388.03;;;18.05;76.61
19860;BME280;2395;50.738;7.122;2022-09-09T05:20:52;100392.78;;;18.11;76.02
19860;BME280;2395;50.738;7.122;2022-09-09T05:23:19;100391.19;;;18.21;75.93
19860;BME280;2395;50.738;7.122;2022-09-09T05:25:56;100387.09;;;18.06;76.01
19860;BME280;2395;50.738;7.122;2022-09-09T05:28:24;100380.84;;;18.08;75.81
19860;BME280;2395;50.738;7.122;2022-09-09T05:30:58;100390.53;;;18.06;75.65
19860;BME280;2395;50.738;7.122;2022-09-09T05:33:27;100393.50;;;18.25;76.02
19860;BME280;2395;50.738;7.122;2022-09-09T05:35:58;100388.59;;;18.21;74.80
19860;BME280;2395;50.738;7.122;2022-09-09T05:42:11;100386.06;;;18.08;75.58
19860;BME280;2395;50.738;7.122;2022-09-09T05:44:38;100386.59;;;18.01;75.25
19860;BME280;2395;50.738;7.122;2022-09-09T05:47:10;100391.00;;;18.24;76.49
19860;BME280;2395;50.738;7.122;2022-09-09T05:49:37;100381.25;;;18.62;75.03
19860;BME280;2395;50.738;7.122;2022-09-09T05:52:04;100374.25;;;18.96;73.74
19860;BME280;2395;50.738;7.122;2022-09-09T05:54:32;100386.31;;;18.97;73.28
19860;BME280;2395;50.738;7.122;2022-09-09T05:56:59;100379.31;;;19.10;72.37
19860;BME280;2395;50.738;7.122;2022-09-09T05:59:26;100383.09;;;19.28;71.40
19860;BME280;2395;50.738;7.122;2022-09-09T06:01:54;100373.88;;;18.90;72.57
19860;BME280;2395;50.738;7.122;2022-09-09T06:04:22;100373.66;;;19.38;72.06
19860;BME280;2395;50.738;7.122;2022-09-09T06:06:50;100382.53;;;19.47;72.02
19860;BME280;2395;50.738;7.122;2022-09-09T06:09:17;100376.25;;;19.60;72.11
19860;BME280;2395;50.738;7.122;2022-09-09T06:11:44;100372.22;;;19.34;72.41
19860;BME280;2395;50.738;7.122;2022-09-09T06:14:11;100383.94;;;19.18;73.46
19860;BME280;2395;50.738;7.122;2022-09-09T06:16:39;100377.75;;;19.19;73.52
19860;BME280;2395;50.738;7.122;2022-09-09T06:19:08;100372.91;;;19.25;72.50
19860;BME280;2395;50.738;7.122;2022-09-09T06:21:37;100375.28;;;18.83;73.77
19860;BME280;2395;50.738;7.122;2022-09-09T06:24:06;100378.63;;;18.85;74.44
19860;BME280;2395;50.738;7.122;2022-09-09T06:26:36;100381.94;;;18.53;74.97
19860;BME280;2395;50.738;7.122;2022-09-09T06:29:06;100376.28;;;18.59;73.27
19860;BME280;2395;50.738;7.122;2022-09-09T06:31:37;100386.94;;;18.67;72.65
19860;BME280;2395;50.738;7.122;2022-09-09T06:34:06;100380.78;;;18.33;73.76
19860;BME280;2395;50.738;7.122;2022-09-09T06:36:37;100378.75;;;18.49;74.42
19860;BME280;2395;50.738;7.122;2022-09-09T06:39:06;100379.81;;;18.58;73.28
19860;BME280;2395;50.738;7.122;2022-09-09T06:41:34;100381.59;;;18.57;72.28
19860;BME280;2395;50.738;7.122;2022-09-09T06:44:02;100386.53;;;18.49;73.74
19860;BME280;2395;50.738;7.122;2022-09-09T06:46:31;100378.91;;;19.04;72.82
19860;BME280;2395;50.738;7.122;2022-09-09T06:48:59;100383.63;;;19.10;70.77
19860;BME280;2395;50.738;7.122;2022-09-09T06:51:29;100384.88;;;19.17;71.20
19860;BME280;2395;50.738;7.122;2022-09-09T06:54:00;100380.13;;;19.22;69.79
19860;BME280;2395;50.738;7.122;2022-09-09T06:56:29;100376.97;;;19.40;70.14
19860;BME280;2395;50.738;7.122;2022-09-09T06:59:03;100375.94;;;19.08;70.16
19860;BME280;2395;50.738;7.122;2022-09-09T07:01:33;100367.13;;;19.33;68.75
19860;BME280;2395;50.738;7.122;2022-09-09T07:04:02;100374.84;;;19.00;68.95
19860;BME280;2395;50.738;7.122;2022-09-09T07:06:36;100375.50;;;19.14;69.23
19860;BME280;2395;50.738;7.122;2022-09-09T07:09:08;100375.34;;;19.05;67.75
19860;BME280;2395;50.738;7.122;2022-09-09T07:11:39;100375.31;;;19.39;68.15
19860;BME280;2395;50.738;7.122;2022-09-09T07:14:08;100370.31;;;19.36;68.07
19860;BME280;2395;50.738;7.122;2022-09-09T07:16:37;100376.25;;;19.49;67.00
19860;BME280;2395;50.738;7.122;2022-09-09T07:19:05;100375.66;;;19.46;66.48
19860;BME280;2395;50.738;7.122;2022-09-09T07:21:33;100379.94;;;19.47;67.12
19860;BME280;2395;50.738;7.122;2022-09-09T07:24:01;100371.75;;;19.40;66.10
19860;BME280;2395;50.738;7.122;2022-09-09T07:26:31;100376.84;;;19.53;66.17
19860;BME280;2395;50.738;7.122;2022-09-09T07:29:07;100383.81;;;19.74;65.64
19860;BME280;2395;50.738;7.122;2022-09-09T07:31:38;100383.00;;;19.63;64.14
19860;BME280;2395;50.738;7.122;2022-09-09T07:34:06;100381.56;;;19.70;64.73
19860;BME280;2395;50.738;7.122;2022-09-09T07:36:35;100396.38;;;19.69;63.56
19860;BME280;2395;50.738;7.122;2022-09-09T07:39:06;100402.75;;;19.65;63.53
19860;BME280;2395;50.738;7.122;2022-09-09T07:41:39;100417.19;;;19.80;63.77
19860;BME280;2395;50.738;7.122;2022-09-09T07:44:09;100414.97;;;19.76;62.91
19860;BME280;2395;50.738;7.122;2022-09-09T07:46:40;100420.63;;;19.80;62.77
19860;BME280;2395;50.738;7.122;2022-09-09T07:49:08;100420.03;;;19.66;62.40
19860;BME280;2395;50.738;7.122;2022-09-09T07:51:39;100416.00;;;19.73;62.45
19860;BME280;2395;50.738;7.122;2022-09-09T07:54:09;100421.69;;;19.56;63.91
19860;BME280;2395;50.738;7.122;2022-09-09T07:56:39;100429.97;;;19.39;63.55
19860;BME280;2395;50.738;7.122;2022-09-09T07:59:08;100431.63;;;19.40;64.02
19860;BME280;2395;50.738;7.122;2022-09-09T08:01:38;100437.53;;;19.42;64.28
19860;BME280;2395;50.738;7.122;2022-09-09T08:04:09;100431.13;;;19.35;64.96
19860;BME280;2395;50.738;7.122;2022-09-09T08:06:44;100430.41;;;19.44;64.47
19860;BME280;2395;50.738;7.122;2022-09-09T08:09:13;100432.09;;;19.45;63.86
19860;BME280;2395;50.738;7.122;2022-09-09T08:11:43;100431.13;;;19.35;64.96
19860;BME280;2395;50.738;7.122;2022-09-09T08:14:11;100419.91;;;19.46;64.51
19860;BME280;2395;50.738;7.122;2022-09-09T08:16:42;100424.44;;;19.66;63.00
19860;BME280;2395;50.738;7.122;2022-09-09T08:19:15;100438.03;;;19.58;61.38
19860;BME280;2395;50.738;7.122;2022-09-09T08:21:44;100428.66;;;19.77;60.87
19860;BME280;2395;50.738;7.122;2022-09-09T08:24:15;100434.00;;;19.65;60.28
19860;BME280;2395;50.738;7.122;2022-09-09T08:26:46;100426.91;;;19.89;60.95
19860;BME280;2395;50.738;7.122;2022-09-09T08:29:15;100442.88;;;19.74;58.92
19860;BME280;2395;50.738;7.122;2022-09-09T08:31:45;100430.31;;;19.78;60.74
19860;BME280;2395;50.738;7.122;2022-09-09T08:34:13;100430.81;;;19.94;61.01
19860;BME280;2395;50.738;7.122;2022-09-09T08:36:43;100432.50;;;19.95;60.61
19860;BME280;2395;50.738;7.122;2022-09-09T08:39:13;100432.06;;;20.22;61.33
19860;BME280;2395;50.738;7.122;2022-09-09T08:42:18;100421.88;;;20.41;59.46
19860;BME280;2395;50.738;7.122;2022-09-09T08:45:16;100419.19;;;20.52;60.00
19860;BME280;2395;50.738;7.122;2022-09-09T08:48:05;100418.81;;;20.25;58.60
19860;BME280;2395;50.738;7.122;2022-09-09T08:50:37;100421.44;;;20.56;60.33
19860;BME280;2395;50.738;7.122;2022-09-09T08:53:15;100423.63;;;20.71;58.77
19860;BME280;2395;50.738;7.122;2022-09-09T08:55:47;100428.06;;;20.60;58.62
19860;BME280;2395;50.738;7.122;2022-09-09T08:58:19;100430.63;;;20.71;57.42
19860;BME280;2395;50.738;7.122;2022-09-09T09:04:17;100428.47;;;20.76;56.56
19860;BME280;2395;50.738;7.122;2022-09-09T09:06:59;100422.19;;;20.89;56.74
19860;BME280;2395;50.738;7.122;2022-09-09T09:09:39;100435.88;;;21.23;54.99
19860;BME280;2395;50.738;7.122;2022-09-09T09:12:18;100441.22;;;21.01;54.94
19860;BME280;2395;50.738;7.122;2022-09-09T09:14:48;100425.44;;;21.23;54.82
19860;BME280;2395;50.738;7.122;2022-09-09T09:17:19;100436.38;;;21.17;53.66
19860;BME280;2395;50.738;7.122;2022-09-09T09:19:48;100437.25;;;21.06;54.41
19860;BME280;2395;50.738;7.122;2022-09-09T09:22:19;100432.38;;;21.13;55.12
19860;BME280;2395;50.738;7.122;2022-09-09T09:24:54;100436.50;;;20.95;55.46
19860;BME280;2395;50.738;7.122;2022-09-09T09:27:31;100427.81;;;21.15;55.24
19860;BME280;2395;50.738;7.122;2022-09-09T09:30:06;100432.75;;;21.08;55.42
19860;BME280;2395;50.738;7.122;2022-09-09T09:32:55;100434.13;;;20.92;55.83
19860;BME280;2395;50.738;7.122;2022-09-09T09:35:23;100436.03;;;21.10;55.06
19860;BME280;2395;50.738;7.122;2022-09-09T09:37:50;100438.66;;;21.10;54.67
19860;BME280;2395;50.738;7.122;2022-09-09T09:40:21;100437.59;;;21.13;54.40
19860;BME280;2395;50.738;7.122;2022-09-09T09:42:52;100436.94;;;20.79;53.97
19860;BME280;2395;50.738;7.122;2022-09-09T09:45:33;100437.75;;;20.80;55.57
19860;BME280;2395;50.738;7.122;2022-09-09T09:48:04;100441.63;;;20.85;54.65
19860;BME280;2395;50.738;7.122;2022-09-09T09:50:32;100434.31;;;20.79;54.17
19860;BME280;2395;50.738;7.122;2022-09-09T09:53:03;100435.59;;;21.05;54.01
19860;BME280;2395;50.738;7.122;2022-09-09T09:55:33;100435.38;;;21.08;53.23
19860;BME280;2395;50.738;7.122;2022-09-09T09:58:04;100443.66;;;20.82;53.49
19860;BME280;2395;50.738;7.122;2022-09-09T10:00:33;100438.53;;;21.12;53.42
19860;BME280;2395;50.738;7.122;2022-09-09T10:03:01;100447.97;;;21.24;53.39
19860;BME280;2395;50.738;7.122;2022-09-09T10:05:30;100445.22;;;21.25;53.10
19860;BME280;2395;50.738;7.122;2022-09-09T10:08:03;100443.44;;;21.05;54.05
19860;BME280;2395;50.738;7.122;2022-09-09T10:10:45;100448.00;;;20.92;54.02
19860;BME280;2395;50.738;7.122;2022-09-09T10:13:21;100452.78;;;20.87;54.62
19860;BME280;2395;50.738;7.122;2022-09-09T10:16:06;100447.00;;;21.04;54.31
19860;BME280;2395;50.738;7.122;2022-09-09T10:18:54;100432.81;;;21.18;54.18
19860;BME280;2395;50.738;7.122;2022-09-09T10:21:43;100431.41;;;21.14;53.55
19860;BME280;2395;50.738;7.122;2022-09-09T10:24:39;100437.56;;;21.33;52.81
19860;BME280;2395;50.738;7.122;2022-09-09T10:27:20;100428.34;;;21.29;52.21
19860;BME280;2395;50.738;7.122;2022-09-09T10:30:06;100424.63;;;21.52;53.63
19860;BME280;2395;50.738;7.122;2022-09-09T10:32:45;100426.00;;;21.26;53.87
19860;BME280;2395;50.738;7.122;2022-09-09T10:35:25;100415.44;;;21.07;53.64
19860;BME280;2395;50.738;7.122;2022-09-09T10:38:16;100423.00;;;21.10;54.25
19860;BME280;2395;50.738;7.122;2022-09-09T10:41:04;100421.28;;;21.00;53.27
19860;BME280;2395;50.738;7.122;2022-09-09T10:44:05;100428.78;;;20.93;52.41
19860;BME280;2395;50.738;7.122;2022-09-09T10:46:54;100414.34;;;20.89;52.80
19860;BME280;2395;50.738;7.122;2022-09-09T10:49:48;100413.38;;;21.31;52.61
19860;BME280;2395;50.738;7.122;2022-09-09T10:52:31;100412.78;;;21.48;52.72
19860;BME280;2395;50.738;7.122;2022-09-09T10:55:09;100417.88;;;21.50;52.33
19860;BME280;2395;50.738;7.122;2022-09-09T10:57:40;100420.34;;;21.51;52.72
19860;BME280;2395;50.738;7.122;2022-09-09T11:00:18;100428.53;;;21.37;52.88
19860;BME280;2395;50.738;7.122;2022-09-09T11:02:51;100419.75;;;21.38;54.15
19860;BME280;2395;50.738;7.122;2022-09-09T11:05:27;100413.41;;;21.91;53.23
19860;BME280;2395;50.738;7.122;2022-09-09T11:08:01;100406.59;;;22.28;51.70
19860;BME280;2395;50.738;7.122;2022-09-09T11:10:40;100408.19;;;22.49;51.52
19860;BME280;2395;50.738;7.122;2022-09-09T11:13:17;100415.06;;;22.88;50.53
19860;BME280;2395;50.738;7.122;2022-09-09T11:15:51;100412.44;;;22.88;50.81
19860;BME280;2395;50.738;7.122;2022-09-09T11:18:22;100417.66;;;22.41;50.39
19860;BME280;2395;50.738;7.122;2022-09-09T11:20:55;100406.00;;;22.05;51.17
19860;BME280;2395;50.738;7.122;2022-09-09T11:23:40;100403.59;;;22.32;51.04
19860;BME280;2395;50.738;7.122;2022-09-09T11:26:17;100390.00;;;22.38;51.21
19860;BME280;2395;50.738;7.122;2022-09-09T11:29:08;100385.34;;;22.51;50.01
19860;BME280;2395;50.738;7.122;2022-09-09T11:31:50;100395.91;;;23.06;48.84
19860;BME280;2395;50.738;7.122;2022-09-09T11:34:42;100386.13;;;22.99;47.57
19860;BME280;2395;50.738;7.122;2022-09-09T11:37:42;100394.53;;;23.57;47.56
19860;BME280;2395;50.738;7.122;2022-09-09T11:40:20;100385.03;;;23.93;47.28
19860;BME280;2395;50.738;7.122;2022-09-09T11:42:49;100382.56;;;24.09;47.20
19860;BME280;2395;50.738;7.122;2022-09-09T11:45:30;100377.50;;;24.24;44.39
19860;BME280;2395;50.738;7.122;2022-09-09T11:48:00;100386.97;;;23.54;46.25
19860;BME280;2395;50.738;7.122;2022-09-09T11:50:35;100377.88;;;23.49;47.47
19860;BME280;2395;50.738;7.122;2022-09-09T11:53:20;100382.00;;;23.15;47.65
19860;BME280;2395;50.738;7.122;2022-09-09T11:56:00;100380.63;;;23.11;46.65
19860;BME280;2395;50.738;7.122;2022-09-09T11:58:33;100390.84;;;22.67;48.01
19860;BME280;2395;50.738;7.122;2022-09-09T12:01:15;100386.56;;;22.94;47.20
19860;BME280;2395;50.738;7.122;2022-09-09T12:03:45;100372.94;;;22.91;47.08
19860;BME280;2395;50.738;7.122;2022-09-09T12:06:18;100383.50;;;22.89;46.50
19860;BME280;2395;50.738;7.122;2022-09-09T12:08:53;100385.47;;;22.68;47.33
19860;BME280;2395;50.738;7.122;2022-09-09T12:11:27;100378.03;;;22.64;47.06
19860;BME280;2395;50.738;7.122;2022-09-09T12:13:57;100378.75;;;22.56;47.10
19860;BME280;2395;50.738;7.122;2022-09-09T12:16:32;100372.50;;;22.39;47.51
19860;BME280;2395;50.738;7.122;2022-09-09T12:19:14;100378.44;;;22.31;47.99
19860;BME280;2395;50.738;7.122;2022-09-09T12:21:50;100376.22;;;22.36;48.19
19860;BME280;2395;50.738;7.122;2022-09-09T12:24:29;100378.88;;;22.45;48.32
19860;BME280;2395;50.738;7.122;2022-09-09T12:27:06;100383.00;;;22.48;47.99
19860;BME280;2395;50.738;7.122;2022-09-09T12:29:46;100387.69;;;22.44;48.17
19860;BME280;2395;50.738;7.122;2022-09-09T12:32:22;100380.91;;;22.42;48.13
19860;BME280;2395;50.738;7.122;2022-09-09T12:34:54;100378.25;;;22.23;48.39
19860;BME280;2395;50.738;7.122;2022-09-09T12:37:31;100377.66;;;22.01;48.39
19860;BME280;2395;50.738;7.122;2022-09-09T12:40:04;100377.69;;;22.20;48.79
19860;BME280;2395;50.738;7.122;2022-09-09T12:42:32;100369.50;;;22.34;48.96
19860;BME280;2395;50.738;7.122;2022-09-09T12:45:01;100371.38;;;22.22;48.54
19860;BME280;2395;50.738;7.122;2022-09-09T12:47:40;100369.47;;;22.43;49.04
19860;BME280;2395;50.738;7.122;2022-09-09T12:50:19;100369.22;;;22.37;49.66
19860;BME280;2395;50.738;7.122;2022-09-09T12:52:49;100367.22;;;22.20;49.56
19860;BME280;2395;50.738;7.122;2022-09-09T12:55:21;100363.78;;;22.10;49.47
19860;BME280;2395;50.738;7.122;2022-09-09T12:57:51;100366.41;;;22.00;49.84
19860;BME280;2395;50.738;7.122;2022-09-09T13:00:22;100359.50;;;21.99;50.49
19860;BME280;2395;50.738;7.122;2022-09-09T13:02:53;100360.56;;;21.87;50.77
19860;BME280;2395;50.738;7.122;2022-09-09T13:05:24;100353.59;;;21.88;51.28
19860;BME280;2395;50.738;7.122;2022-09-09T13:08:00;100358.41;;;21.92;50.64
19860;BME280;2395;50.738;7.122;2022-09-09T13:10:33;100360.06;;;22.03;51.37
19860;BME280;2395;50.738;7.122;2022-09-09T13:13:02;100353.75;;;22.15;50.03
19860;BME280;2395;50.738;7.122;2022-09-09T13:15:29;100358.78;;;22.37;50.03
19860;BME280;2395;50.738;7.122;2022-09-09T13:18:10;100353.47;;;22.18;50.30
19860;BME280;2395;50.738;7.122;2022-09-09T13:20:38;100354.72;;;22.14;51.29
19860;BME280;2395;50.738;7.122;2022-09-09T13:23:05;100357.59;;;22.11;50.60
19860;BME280;2395;50.738;7.122;2022-09-09T13:25:33;100357.72;;;22.00;50.65
19860;BME280;2395;50.738;7.122;2022-09-09T13:28:03;100351.59;;;21.71;52.39
19860;BME280;2395;50.738;7.122;2022-09-09T13:30:33;100359.81;;;21.66;53.15
19860;BME280;2395;50.738;7.122;2022-09-09T13:33:05;100358.75;;;21.78;53.87
19860;BME280;2395;50.738;7.122;2022-09-09T13:35:33;100350.50;;;22.32;52.64
19860;BME280;2395;50.738;7.122;2022-09-09T13:38:08;100346.22;;;22.78;52.27